Time;durP1;ratioP1;P1;durP2;ratioP2;P2;SDS_P1;SDS_P2;PMS_P1;PMS_P2;Temp;Humidity;BMP_temperature;BMP_pressure;BME280_temperature;BME280_humidity;BME280_pressure;Samples;Min_cycle;Max_cycle;Signal;HPM_P1;HPM_P2
2022/04/08 00:01:19;;;;;;;;;;;7.80;99.90;;;;;;5085229;28;19924;-72
2022/04/08 00:03:46;;;;;;;;;;;7.80;99.90;;;;;;5080020;28;19958;-72
2022/04/08 00:06:13;;;;;;;;;;;7.90;99.90;;;;;;5085825;28;19952;-72
2022/04/08 00:08:40;;;;;;;;;;;7.80;99.90;;;;;;5086548;28;19920;-72
2022/04/08 00:11:06;;;;;;;;;;;7.80;99.90;;;;;;5086508;28;19928;-72
2022/04/08 00:13:33;;;;;;;;;;;7.80;99.90;;;;;;5083126;28;19920;-72
2022/04/08 00:16:01;;;;;;;;;;;7.80;99.90;;;;;;5085636;28;20208;-72
2022/04/08 00:18:29;;;;;;;;;;;7.70;99.90;;;;;;5086374;28;20127;-72
2022/04/08 00:20:56;;;;;;;;;;;7.70;99.90;;;;;;5084457;28;19920;-72
2022/04/08 00:23:23;;;;;;;;;;;7.70;99.90;;;;;;5086072;28;19921;-72
2022/04/08 00:25:49;;;;;;;;;;;7.70;99.90;;;;;;5085319;28;19924;-72
2022/04/08 00:28:16;;;;;;;;;;;7.70;99.90;;;;;;5085984;28;19920;-72
2022/04/08 00:30:42;;;;;;;;;;;7.70;99.90;;;;;;5086464;28;19927;-72
2022/04/08 00:33:10;;;;;;;;;;;7.60;99.90;;;;;;5086305;28;19943;-71
2022/04/08 00:35:37;;;;;;;;;;;7.60;99.90;;;;;;5081365;28;19980;-72
2022/04/08 00:38:03;;;;;;;;;;;7.60;99.90;;;;;;5081696;28;19920;-72
2022/04/08 00:40:30;;;;;;;;;;;7.60;99.90;;;;;;5082499;28;19936;-71
2022/04/08 00:42:56;;;;;;;;;;;7.60;99.90;;;;;;5080775;28;19920;-72
2022/04/08 00:45:23;;;;;;;;;;;7.60;99.90;;;;;;5068416;28;20220;-72
2022/04/08 00:47:49;;;;;;;;;;;7.60;99.90;;;;;;5080495;28;19921;-72
2022/04/08 00:50:19;;;;;;;;;;;7.50;99.90;;;;;;5064092;28;20212;-72
2022/04/08 00:52:46;;;;;;;;;;;7.50;99.90;;;;;;5085811;28;20208;-72
2022/04/08 00:55:13;;;;;;;;;;;7.50;99.90;;;;;;5082228;28;19924;-72
2022/04/08 00:57:40;;;;;;;;;;;7.50;99.90;;;;;;5085181;28;19920;-72
2022/04/08 01:00:08;;;;;;;;;;;7.50;99.90;;;;;;5085770;28;19927;-72
2022/04/08 01:02:34;;;;;;;;;;;7.50;99.90;;;;;;5085220;28;19920;-72
2022/04/08 01:05:01;;;;;;;;;;;7.50;99.90;;;;;;5085279;28;19921;-71
2022/04/08 01:07:29;;;;;;;;;;;7.40;99.90;;;;;;5084046;28;19920;-72
2022/04/08 01:09:56;;;;;;;;;;;7.40;99.90;;;;;;5082401;28;20131;-72
2022/04/08 01:12:22;;;;;;;;;;;7.40;99.90;;;;;;5085264;28;19920;-72
2022/04/08 01:14:56;;;;;;;;;;;7.30;99.90;;;;;;5085096;28;19924;-72
2022/04/08 01:17:22;;;;;;;;;;;7.30;99.90;;;;;;5084531;28;19921;-72
2022/04/08 01:19:49;;;;;;;;;;;7.30;99.90;;;;;;5083571;28;20097;-71
2022/04/08 01:22:16;;;;;;;;;;;7.30;99.90;;;;;;5083688;28;20116;-73
2022/04/08 01:24:47;;;;;;;;;;;7.30;99.90;;;;;;5084882;28;19943;-72
2022/04/08 01:27:15;;;;;;;;;;;7.30;99.90;;;;;;5084744;28;19929;-72
2022/04/08 01:29:41;;;;;;;;;;;7.20;99.90;;;;;;5084834;28;20231;-72
2022/04/08 01:32:08;;;;;;;;;;;7.20;99.90;;;;;;5084837;28;20116;-72
2022/04/08 01:34:35;;;;;;;;;;;7.20;99.90;;;;;;5085546;22;19921;-70
2022/04/08 01:37:01;;;;;;;;;;;7.20;99.90;;;;;;5076960;28;19932;-71
2022/04/08 01:39:28;;;;;;;;;;;7.20;99.90;;;;;;5064894;28;19921;-71
2022/04/08 01:41:54;;;;;;;;;;;7.20;99.90;;;;;;5065902;28;19921;-71
2022/04/08 01:44:22;;;;;;;;;;;7.20;99.90;;;;;;5064601;28;19927;-70
2022/04/08 01:46:49;;;;;;;;;;;7.20;99.90;;;;;;5064523;28;19927;-70
2022/04/08 01:49:16;;;;;;;;;;;7.10;99.90;;;;;;5054461;28;20230;-71
2022/04/08 01:51:42;;;;;;;;;;;7.10;99.90;;;;;;5054439;28;19928;-71
2022/04/08 01:54:09;;;;;;;;;;;7.10;99.90;;;;;;5064609;28;19927;-70
2022/04/08 01:56:35;;;;;;;;;;;7.00;99.90;;;;;;5063934;28;19921;-70
2022/04/08 01:59:02;;;;;;;;;;;7.00;99.90;;;;;;5062489;28;19920;-71
2022/04/08 02:01:30;;;;;;;;;;;7.00;99.90;;;;;;5064263;28;19925;-71
2022/04/08 02:03:56;;;;;;;;;;;7.00;99.90;;;;;;5063736;28;19925;-71
2022/04/08 02:06:23;;;;;;;;;;;6.90;99.90;;;;;;5063899;28;19921;-71
2022/04/08 02:08:50;;;;;;;;;;;6.90;99.90;;;;;;5064171;28;19921;-70
2022/04/08 02:11:17;;;;;;;;;;;6.90;99.90;;;;;;5062840;28;19928;-71
2022/04/08 02:13:43;;;;;;;;;;;6.90;99.90;;;;;;5063877;28;19929;-70
2022/04/08 02:16:10;;;;;;;;;;;6.80;99.90;;;;;;5063504;28;19921;-70
2022/04/08 02:18:38;;;;;;;;;;;6.80;99.90;;;;;;5043891;28;19921;-71
2022/04/08 02:21:05;;;;;;;;;;;6.80;99.90;;;;;;5046714;28;19925;-70
2022/04/08 02:23:31;;;;;;;;;;;6.80;99.90;;;;;;5063665;28;19921;-71
2022/04/08 02:25:58;;;;;;;;;;;6.80;99.90;;;;;;5063286;28;20208;-70
2022/04/08 02:28:24;;;;;;;;;;;6.80;99.90;;;;;;5063966;28;19920;-71
2022/04/08 02:30:52;;;;;;;;;;;6.80;99.90;;;;;;5063585;28;19927;-71
2022/04/08 02:33:19;;;;;;;;;;;6.80;99.90;;;;;;5063707;28;19929;-71
2022/04/08 02:35:47;;;;;;;;;;;6.80;99.90;;;;;;5063162;28;19927;-70
2022/04/08 02:38:14;;;;;;;;;;;6.80;99.90;;;;;;5063536;28;19920;-70
2022/04/08 02:40:40;;;;;;;;;;;6.80;99.90;;;;;;5063096;28;19943;-69
2022/04/08 02:43:07;;;;;;;;;;;6.80;99.90;;;;;;5061818;28;19921;-71
2022/04/08 02:45:33;;;;;;;;;;;6.70;99.90;;;;;;5061759;28;19925;-70
2022/04/08 02:48:00;;;;;;;;;;;6.70;99.90;;;;;;5059881;28;19928;-71
2022/04/08 02:50:27;;;;;;;;;;;6.70;99.90;;;;;;5063463;28;20278;-70
2022/04/08 02:52:54;;;;;;;;;;;6.70;99.90;;;;;;5063021;28;19921;-70
2022/04/08 02:55:21;;;;;;;;;;;6.60;99.90;;;;;;5063440;28;19935;-71
2022/04/08 02:57:48;;;;;;;;;;;6.60;99.90;;;;;;5063383;28;19924;-71
2022/04/08 03:00:15;;;;;;;;;;;6.60;99.90;;;;;;5060638;28;19989;-71
2022/04/08 03:02:42;;;;;;;;;;;6.60;99.90;;;;;;5063246;28;19928;-71
2022/04/08 03:05:09;;;;;;;;;;;6.70;99.90;;;;;;5062761;28;19924;-68
2022/04/08 03:07:36;;;;;;;;;;;6.60;99.90;;;;;;5062965;28;19920;-70
2022/04/08 03:10:04;;;;;;;;;;;6.60;99.90;;;;;;5063142;28;19943;-70
2022/04/08 03:12:31;;;;;;;;;;;6.60;99.90;;;;;;5062834;28;20258;-70
2022/04/08 03:14:57;;;;;;;;;;;6.50;99.90;;;;;;5062908;28;19921;-70
2022/04/08 03:17:24;;;;;;;;;;;6.50;99.90;;;;;;5061877;28;19921;-71
2022/04/08 03:19:50;;;;;;;;;;;6.50;99.90;;;;;;5063192;28;20212;-71
2022/04/08 03:22:19;;;;;;;;;;;6.50;99.90;;;;;;5062996;28;19929;-71
2022/04/08 03:24:46;;;;;;;;;;;6.50;99.90;;;;;;5063200;28;19979;-70
2022/04/08 03:27:14;;;;;;;;;;;6.50;99.90;;;;;;5062626;28;19920;-71
2022/04/08 03:29:40;;;;;;;;;;;6.40;99.90;;;;;;5062548;28;19929;-71
2022/04/08 03:32:07;;;;;;;;;;;6.40;99.90;;;;;;5060865;28;19925;-71
2022/04/08 03:34:34;;;;;;;;;;;6.40;99.90;;;;;;5063425;28;19921;-71
2022/04/08 03:37:01;;;;;;;;;;;6.40;99.90;;;;;;5062100;28;19920;-70
2022/04/08 03:39:27;;;;;;;;;;;6.40;99.90;;;;;;5063115;28;19928;-71
2022/04/08 03:41:54;;;;;;;;;;;6.40;99.90;;;;;;5062940;28;19920;-68
2022/04/08 03:44:22;;;;;;;;;;;6.40;99.90;;;;;;5063113;28;19927;-70
2022/04/08 03:46:49;;;;;;;;;;;6.30;99.90;;;;;;5062263;28;19927;-71
2022/04/08 03:49:16;;;;;;;;;;;6.30;99.90;;;;;;5062899;28;19921;-70
2022/04/08 03:51:43;;;;;;;;;;;6.30;99.90;;;;;;5063147;28;19927;-70
2022/04/08 03:54:09;;;;;;;;;;;6.30;99.90;;;;;;5062638;28;20154;-71
2022/04/08 03:56:36;;;;;;;;;;;6.20;99.90;;;;;;5062180;28;19928;-70
2022/04/08 03:59:03;;;;;;;;;;;6.20;99.90;;;;;;5060672;28;19921;-70
2022/04/08 04:01:31;;;;;;;;;;;6.20;99.90;;;;;;5071786;28;20208;-71
2022/04/08 04:03:57;;;;;;;;;;;6.20;99.90;;;;;;5062299;28;19928;-71
2022/04/08 04:06:24;;;;;;;;;;;6.20;99.90;;;;;;5062589;28;19928;-70
2022/04/08 04:08:50;;;;;;;;;;;6.20;99.90;;;;;;5062638;28;19928;-70
2022/04/08 04:11:17;;;;;;;;;;;6.20;99.90;;;;;;5055331;28;19936;-70
2022/04/08 04:13:44;;;;;;;;;;;6.20;99.90;;;;;;5062651;28;19971;-70
2022/04/08 04:16:11;;;;;;;;;;;6.20;99.90;;;;;;5058060;28;19943;-71
2022/04/08 04:18:39;;;;;;;;;;;6.10;99.90;;;;;;5062431;28;19953;-70
2022/04/08 04:21:05;;;;;;;;;;;6.10;99.90;;;;;;5062429;28;20212;-70
2022/04/08 04:23:33;;;;;;;;;;;6.10;99.90;;;;;;5062250;28;20093;-70
2022/04/08 04:26:00;;;;;;;;;;;6.10;99.90;;;;;;5064596;28;19966;-72
2022/04/08 04:28:28;;;;;;;;;;;6.10;99.90;;;;;;5065325;28;19920;-71
2022/04/08 04:30:55;;;;;;;;;;;6.10;99.90;;;;;;5057490;28;19925;-70
2022/04/08 04:33:21;;;;;;;;;;;6.00;99.90;;;;;;5054022;28;19928;-70
2022/04/08 04:35:49;;;;;;;;;;;6.00;99.90;;;;;;5048510;28;19921;-70
2022/04/08 04:38:16;;;;;;;;;;;6.00;99.90;;;;;;5062762;28;19920;-70
2022/04/08 04:40:42;;;;;;;;;;;6.00;99.90;;;;;;5062966;28;20011;-70
2022/04/08 04:43:09;;;;;;;;;;;6.00;99.90;;;;;;5066178;28;19929;-71
2022/04/08 04:45:37;;;;;;;;;;;6.00;99.90;;;;;;5057856;28;19921;-70
2022/04/08 04:48:04;;;;;;;;;;;6.00;99.90;;;;;;5061380;28;19921;-71
2022/04/08 04:50:31;;;;;;;;;;;6.00;99.90;;;;;;5057339;28;19920;-70
2022/04/08 04:52:59;;;;;;;;;;;6.10;99.90;;;;;;5048355;28;19921;-70
2022/04/08 04:55:25;;;;;;;;;;;6.00;99.90;;;;;;5068204;28;19920;-70
2022/04/08 04:57:52;;;;;;;;;;;6.00;99.90;;;;;;5075428;28;19920;-70
2022/04/08 05:00:19;;;;;;;;;;;6.00;99.90;;;;;;5065887;28;19928;-70
2022/04/08 05:02:46;;;;;;;;;;;6.00;99.90;;;;;;5071373;28;19921;-70
2022/04/08 05:05:14;;;;;;;;;;;6.00;99.90;;;;;;5062470;28;19920;-71
2022/04/08 05:07:43;;;;;;;;;;;6.00;99.90;;;;;;5062651;28;20290;-71
2022/04/08 05:10:11;;;;;;;;;;;6.00;99.90;;;;;;5065875;28;19920;-71
2022/04/08 05:12:38;;;;;;;;;;;6.10;99.90;;;;;;5065454;28;20263;-71
2022/04/08 05:15:06;;;;;;;;;;;6.10;99.90;;;;;;5065434;28;20220;-70
2022/04/08 05:17:35;;;;;;;;;;;6.10;99.90;;;;;;5082573;28;19928;-69
2022/04/08 05:20:01;;;;;;;;;;;6.10;99.90;;;;;;5085699;28;19920;-71
2022/04/08 05:22:28;;;;;;;;;;;6.10;99.90;;;;;;5085697;28;20093;-70
2022/04/08 05:24:54;;;;;;;;;;;6.20;99.90;;;;;;5085071;28;20093;-70
2022/04/08 05:27:22;;;;;;;;;;;6.10;99.90;;;;;;5084726;28;19921;-70
2022/04/08 05:29:49;;;;;;;;;;;6.20;99.90;;;;;;5077269;28;19920;-70
2022/04/08 05:32:15;;;;;;;;;;;6.20;99.90;;;;;;5064251;28;19921;-71
2022/04/08 05:34:43;;;;;;;;;;;6.20;99.90;;;;;;5062490;28;19928;-71
2022/04/08 05:37:12;;;;;;;;;;;6.30;99.90;;;;;;5064564;28;19921;-72
2022/04/08 05:39:38;;;;;;;;;;;6.30;99.90;;;;;;5065272;28;19929;-71
2022/04/08 05:42:06;;;;;;;;;;;6.30;99.90;;;;;;5064920;28;19921;-71
2022/04/08 05:44:34;;;;;;;;;;;6.30;99.90;;;;;;5064452;28;19920;-70
2022/04/08 05:47:00;;;;;;;;;;;6.30;99.90;;;;;;5064575;28;19921;-70
2022/04/08 05:49:30;;;;;;;;;;;6.30;99.90;;;;;;5064017;28;19936;-69
2022/04/08 05:51:56;;;;;;;;;;;6.30;99.90;;;;;;5064461;28;19921;-71
2022/04/08 05:54:23;;;;;;;;;;;6.40;99.90;;;;;;5064845;28;19921;-71
2022/04/08 05:56:49;;;;;;;;;;;6.30;99.90;;;;;;5063582;28;20228;-71
2022/04/08 05:59:16;;;;;;;;;;;6.30;99.90;;;;;;5063293;28;20093;-71
2022/04/08 06:01:44;;;;;;;;;;;6.30;99.90;;;;;;5064392;28;20085;-71
2022/04/08 06:04:10;;;;;;;;;;;6.30;99.90;;;;;;5064400;28;19945;-71
2022/04/08 06:06:38;;;;;;;;;;;6.30;99.90;;;;;;5063890;28;19927;-71
2022/04/08 06:09:05;;;;;;;;;;;6.30;99.90;;;;;;5064527;28;19928;-71
2022/04/08 06:11:31;;;;;;;;;;;6.40;99.90;;;;;;5064220;28;19920;-71
2022/04/08 06:13:58;;;;;;;;;;;6.40;99.90;;;;;;5064096;28;19927;-71
2022/04/08 06:16:25;;;;;;;;;;;6.50;99.90;;;;;;5063759;28;19948;-70
2022/04/08 06:18:53;;;;;;;;;;;6.50;99.90;;;;;;5063908;28;20208;-71
2022/04/08 06:21:20;;;;;;;;;;;6.60;99.90;;;;;;5064072;28;19927;-70
2022/04/08 06:23:46;;;;;;;;;;;6.60;99.90;;;;;;5064150;28;19920;-70
2022/04/08 06:26:14;;;;;;;;;;;6.60;99.90;;;;;;5063299;28;19984;-71
2022/04/08 06:28:41;;;;;;;;;;;6.70;99.90;;;;;;5063872;28;19928;-71
2022/04/08 06:31:08;;;;;;;;;;;6.70;99.90;;;;;;5064117;28;20208;-71
2022/04/08 06:33:34;;;;;;;;;;;6.80;99.90;;;;;;5063883;28;19927;-71
2022/04/08 06:36:02;;;;;;;;;;;6.80;99.90;;;;;;5063435;28;19921;-71
2022/04/08 06:38:29;;;;;;;;;;;6.80;99.90;;;;;;5061357;28;19927;-71
2022/04/08 06:40:55;;;;;;;;;;;6.90;99.90;;;;;;5063980;28;20208;-71
2022/04/08 06:43:22;;;;;;;;;;;7.00;99.90;;;;;;5063811;28;19928;-71
2022/04/08 06:45:49;;;;;;;;;;;7.00;99.90;;;;;;5063166;28;19921;-71
2022/04/08 06:48:16;;;;;;;;;;;7.00;99.90;;;;;;5061486;28;19920;-71
2022/04/08 06:50:43;;;;;;;;;;;7.10;99.90;;;;;;5063837;28;20124;-72
2022/04/08 06:53:11;;;;;;;;;;;7.10;99.90;;;;;;5063619;28;19924;-70
2022/04/08 06:55:37;;;;;;;;;;;7.10;99.90;;;;;;5062189;28;19929;-70
2022/04/08 06:58:04;;;;;;;;;;;7.10;99.90;;;;;;5063727;28;19927;-71
2022/04/08 07:00:32;;;;;;;;;;;7.10;99.90;;;;;;5063508;28;20123;-71
2022/04/08 07:02:58;;;;;;;;;;;7.10;99.90;;;;;;5063320;28;19920;-71
2022/04/08 07:05:25;;;;;;;;;;;7.20;99.90;;;;;;5061707;28;19920;-71
2022/04/08 07:07:52;;;;;;;;;;;7.20;99.90;;;;;;5063425;28;19921;-70
2022/04/08 07:10:20;;;;;;;;;;;7.10;99.90;;;;;;5062881;28;19921;-71
2022/04/08 07:12:46;;;;;;;;;;;7.10;99.90;;;;;;5063531;28;19921;-71
2022/04/08 07:15:13;;;;;;;;;;;7.20;99.90;;;;;;5062716;28;19925;-69
2022/04/08 07:17:39;;;;;;;;;;;7.20;99.90;;;;;;5063147;28;19920;-71
2022/04/08 07:20:06;;;;;;;;;;;7.20;99.90;;;;;;5062546;28;19924;-71
2022/04/08 07:22:33;;;;;;;;;;;7.20;99.90;;;;;;5063117;28;19943;-71
2022/04/08 07:25:00;;;;;;;;;;;7.20;99.90;;;;;;5062896;28;20163;-72
2022/04/08 07:27:27;;;;;;;;;;;7.20;99.90;;;;;;5062656;28;19921;-71
2022/04/08 07:29:54;;;;;;;;;;;7.20;99.90;;;;;;5063288;28;19921;-71
2022/04/08 07:32:21;;;;;;;;;;;7.20;99.90;;;;;;5063065;28;20115;-71
2022/04/08 07:34:49;;;;;;;;;;;7.20;99.90;;;;;;5076599;22;19921;-73
2022/04/08 07:37:15;;;;;;;;;;;7.30;99.90;;;;;;5062418;28;19921;-73
2022/04/08 07:39:43;;;;;;;;;;;7.40;99.90;;;;;;5062609;28;19928;-72
2022/04/08 07:42:09;;;;;;;;;;;7.40;99.90;;;;;;5063044;28;19975;-73
2022/04/08 07:44:38;;;;;;;;;;;7.40;99.90;;;;;;5063127;28;19927;-72
2022/04/08 07:47:04;;;;;;;;;;;7.40;99.90;;;;;;5062670;28;20062;-73
2022/04/08 07:49:31;;;;;;;;;;;7.40;99.90;;;;;;5062699;28;19921;-73
2022/04/08 07:51:58;;;;;;;;;;;7.50;99.90;;;;;;5062918;28;19921;-73
2022/04/08 07:54:24;;;;;;;;;;;7.50;99.90;;;;;;5063206;28;19944;-71
2022/04/08 07:56:51;;;;;;;;;;;7.60;99.90;;;;;;5062539;28;19921;-72
2022/04/08 07:59:18;;;;;;;;;;;7.60;99.90;;;;;;5060047;28;19928;-72
2022/04/08 08:01:48;;;;;;;;;;;7.60;99.90;;;;;;5062551;28;19921;-73
2022/04/08 08:04:15;;;;;;;;;;;7.60;99.90;;;;;;5061795;28;19935;-74
2022/04/08 08:06:41;;;;;;;;;;;7.60;99.90;;;;;;5062462;28;19959;-73
2022/04/08 08:09:08;;;;;;;;;;;7.60;99.90;;;;;;5063004;28;19921;-73
2022/04/08 08:11:35;;;;;;;;;;;7.70;99.90;;;;;;5062930;28;19921;-73
2022/04/08 08:14:01;;;;;;;;;;;7.70;99.90;;;;;;5062823;28;20212;-72
2022/04/08 08:16:28;;;;;;;;;;;7.70;99.90;;;;;;5065327;28;20089;-73
2022/04/08 08:18:56;;;;;;;;;;;7.70;99.90;;;;;;5065958;28;20090;-73
2022/04/08 08:21:23;;;;;;;;;;;7.70;99.90;;;;;;5066656;28;19936;-72
2022/04/08 08:23:50;;;;;;;;;;;7.70;99.90;;;;;;5066472;28;20234;-73
2022/04/08 08:26:16;;;;;;;;;;;7.70;99.90;;;;;;5065784;28;19927;-73
2022/04/08 08:28:43;;;;;;;;;;;7.60;99.90;;;;;;5066540;28;19921;-72
2022/04/08 08:31:10;;;;;;;;;;;7.60;99.90;;;;;;5066614;28;20196;-73
2022/04/08 08:33:36;;;;;;;;;;;7.60;99.90;;;;;;5066270;28;19927;-72
2022/04/08 08:36:04;;;;;;;;;;;7.60;99.90;;;;;;5066206;28;19927;-73
2022/04/08 08:38:31;;;;;;;;;;;7.60;99.90;;;;;;5065819;28;20200;-72
2022/04/08 08:40:58;;;;;;;;;;;7.60;99.90;;;;;;5066140;28;19927;-74
2022/04/08 08:43:24;;;;;;;;;;;7.60;99.90;;;;;;5066353;28;19936;-75
2022/04/08 08:45:51;;;;;;;;;;;7.60;99.90;;;;;;5065435;28;19920;-74
2022/04/08 08:48:18;;;;;;;;;;;7.60;99.90;;;;;;5065838;28;19929;-73
2022/04/08 08:50:46;;;;;;;;;;;7.60;99.90;;;;;;5066126;28;19927;-72
2022/04/08 08:53:16;;;;;;;;;;;7.60;99.90;;;;;;5063857;28;19927;-73
2022/04/08 08:55:43;;;;;;;;;;;7.50;99.90;;;;;;5065356;28;19921;-73
2022/04/08 08:58:09;;;;;;;;;;;7.50;99.90;;;;;;5065806;28;19927;-73
2022/04/08 09:00:37;;;;;;;;;;;7.30;99.90;;;;;;5061480;28;20234;-72
2022/04/08 09:03:03;;;;;;;;;;;7.20;99.90;;;;;;5065010;28;20147;-72
2022/04/08 09:05:30;;;;;;;;;;;7.10;99.90;;;;;;5065050;28;20216;-72
2022/04/08 09:07:57;;;;;;;;;;;7.10;99.90;;;;;;5065563;28;19924;-72
2022/04/08 09:10:26;;;;;;;;;;;7.00;99.90;;;;;;5045656;28;19921;-73
2022/04/08 09:12:53;;;;;;;;;;;7.00;99.90;;;;;;5045651;28;20209;-72
2022/04/08 09:15:20;;;;;;;;;;;7.00;99.90;;;;;;5044528;28;19927;-72
2022/04/08 09:17:47;;;;;;;;;;;7.00;99.90;;;;;;5062908;28;19920;-74
2022/04/08 09:20:13;;;;;;;;;;;6.90;99.90;;;;;;5065334;28;19921;-72
2022/04/08 09:22:40;;;;;;;;;;;6.80;99.90;;;;;;5065416;28;19920;-73
2022/04/08 09:25:10;;;;;;;;;;;6.80;99.90;;;;;;5064986;28;19921;-72
2022/04/08 09:27:39;;;;;;;;;;;6.80;99.90;;;;;;5064166;28;19921;-71
2022/04/08 09:30:07;;;;;;;;;;;6.80;99.90;;;;;;5065194;28;20224;-71
2022/04/08 09:32:34;;;;;;;;;;;6.70;99.90;;;;;;5065131;28;19920;-72
2022/04/08 09:35:00;;;;;;;;;;;6.60;99.90;;;;;;5064874;28;20226;-75
2022/04/08 09:37:28;;;;;;;;;;;6.60;99.90;;;;;;5064719;28;20124;-72
2022/04/08 09:39:56;;;;;;;;;;;6.60;99.90;;;;;;5064875;28;20147;-72
2022/04/08 09:42:22;;;;;;;;;;;6.60;99.90;;;;;;5064798;28;19920;-72
2022/04/08 09:44:51;;;;;;;;;;;6.60;99.90;;;;;;5064737;28;19920;-71
2022/04/08 09:47:17;;;;;;;;;;;6.50;99.90;;;;;;5064247;28;19984;-71
2022/04/08 09:49:44;;;;;;;;;;;6.50;99.90;;;;;;5065048;28;19920;-72
2022/04/08 09:52:11;;;;;;;;;;;6.50;99.90;;;;;;5064646;28;19921;-73
2022/04/08 09:54:41;;;;;;;;;;;6.50;99.90;;;;;;5064378;28;19936;-70
2022/04/08 09:57:10;;;;;;;;;;;6.50;99.90;;;;;;5064080;28;19921;-72
2022/04/08 09:59:38;;;;;;;;;;;6.50;99.90;;;;;;5064865;28;19921;-71
2022/04/08 10:02:06;;;;;;;;;;;6.50;99.90;;;;;;5060675;28;19921;-71
2022/04/08 10:04:34;;;;;;;;;;;6.50;99.90;;;;;;5064072;28;20212;-72
2022/04/08 10:07:02;;;;;;;;;;;6.50;99.90;;;;;;5063239;28;19928;-72
2022/04/08 10:09:32;;;;;;;;;;;6.40;99.90;;;;;;5062969;28;19925;-72
2022/04/08 10:12:03;;;;;;;;;;;6.30;99.90;;;;;;5064391;28;19921;-73
2022/04/08 10:14:36;;;;;;;;;;;6.40;99.90;;;;;;5064131;28;19992;-71
2022/04/08 10:17:03;;;;;;;;;;;6.40;99.90;;;;;;5063720;28;19920;-72
2022/04/08 10:19:31;;;;;;;;;;;6.40;99.90;;;;;;5063939;28;19920;-73
2022/04/08 10:21:59;;;;;;;;;;;6.40;99.90;;;;;;5065025;28;19974;-72
2022/04/08 10:24:27;;;;;;;;;;;6.50;99.90;;;;;;5064778;28;19927;-72
2022/04/08 10:26:57;;;;;;;;;;;6.60;99.90;;;;;;5063739;28;19928;-73
2022/04/08 10:29:24;;;;;;;;;;;6.60;99.90;;;;;;5064374;28;19927;-73
2022/04/08 10:31:58;;;;;;;;;;;6.70;99.90;;;;;;5064020;28;19920;-73
2022/04/08 10:34:25;;;;;;;;;;;6.70;99.90;;;;;;5063825;28;19984;-72
2022/04/08 10:36:53;;;;;;;;;;;6.70;99.90;;;;;;5063506;28;20151;-72
2022/04/08 10:39:21;;;;;;;;;;;6.80;99.90;;;;;;5063888;28;19920;-73
2022/04/08 10:41:48;;;;;;;;;;;6.80;99.90;;;;;;5064126;28;19927;-72
2022/04/08 10:44:15;;;;;;;;;;;6.70;99.90;;;;;;5063754;28;19929;-72
2022/04/08 10:46:48;;;;;;;;;;;6.70;99.90;;;;;;5063069;28;19927;-72
2022/04/08 10:49:15;;;;;;;;;;;6.60;99.90;;;;;;5064094;28;19931;-72
2022/04/08 10:51:44;;;;;;;;;;;6.50;99.90;;;;;;5064050;28;19927;-72
2022/04/08 10:54:12;;;;;;;;;;;6.50;99.90;;;;;;5063133;28;19924;-72
2022/04/08 10:56:39;;;;;;;;;;;6.50;99.90;;;;;;5061148;28;20231;-74
2022/04/08 10:59:06;;;;;;;;;;;6.50;99.90;;;;;;5061489;28;19921;-72
2022/04/08 11:01:35;;;;;;;;;;;6.60;99.90;;;;;;5062351;28;20108;-72
2022/04/08 11:04:02;;;;;;;;;;;6.60;99.90;;;;;;5063355;28;20010;-72
2022/04/08 11:06:30;;;;;;;;;;;6.50;99.90;;;;;;5049378;28;19921;-72
2022/04/08 11:09:04;;;;;;;;;;;6.50;99.90;;;;;;5042663;28;21548;-75
2022/04/08 11:11:32;;;;;;;;;;;6.50;99.90;;;;;;5055037;28;19920;-72
2022/04/08 11:14:00;;;;;;;;;;;6.40;99.90;;;;;;5062370;28;19921;-72
2022/04/08 11:16:31;;;;;;;;;;;6.40;99.90;;;;;;5062693;28;20208;-72
2022/04/08 11:18:58;;;;;;;;;;;6.30;99.90;;;;;;5062855;28;19921;-74
2022/04/08 11:21:25;;;;;;;;;;;6.40;99.90;;;;;;5063205;28;19925;-73
2022/04/08 11:23:56;;;;;;;;;;;6.40;99.90;;;;;;5057617;28;19921;-71
2022/04/08 11:26:23;;;;;;;;;;;6.40;99.90;;;;;;5061670;28;19924;-73
2022/04/08 11:28:51;;;;;;;;;;;6.30;99.90;;;;;;5063119;28;20307;-71
2022/04/08 11:31:18;;;;;;;;;;;6.20;99.90;;;;;;5063028;28;20159;-71
2022/04/08 11:33:45;;;;;;;;;;;6.10;99.90;;;;;;5063076;28;20204;-71
2022/04/08 11:36:11;;;;;;;;;;;6.10;99.90;;;;;;5062448;28;19921;-72
2022/04/08 11:38:38;;;;;;;;;;;6.10;99.90;;;;;;5060844;28;19921;-72
2022/04/08 11:41:04;;;;;;;;;;;6.10;99.90;;;;;;5062927;28;19924;-72
2022/04/08 11:43:31;;;;;;;;;;;6.10;99.90;;;;;;5062378;28;19921;-72
2022/04/08 11:46:00;;;;;;;;;;;6.10;99.90;;;;;;5062438;28;19995;-72
2022/04/08 11:48:26;;;;;;;;;;;6.10;99.90;;;;;;5063066;28;19924;-72
2022/04/08 11:50:53;;;;;;;;;;;6.10;99.90;;;;;;5065426;28;19921;-72
2022/04/08 11:53:20;;;;;;;;;;;6.10;99.90;;;;;;5065061;28;19943;-74
2022/04/08 11:55:54;;;;;;;;;;;6.20;99.90;;;;;;5066349;28;19929;-72
2022/04/08 11:58:20;;;;;;;;;;;6.20;99.90;;;;;;5064080;28;20112;-72
2022/04/08 12:00:47;;;;;;;;;;;6.30;99.90;;;;;;5066743;28;19927;-73
2022/04/08 12:03:19;;;;;;;;;;;6.30;99.90;;;;;;5064344;28;20234;-72
2022/04/08 12:05:46;;;;;;;;;;;6.40;99.90;;;;;;5066183;28;19963;-73
2022/04/08 12:08:13;;;;;;;;;;;6.50;99.90;;;;;;5066720;28;19921;-73
2022/04/08 12:10:40;;;;;;;;;;;6.50;99.90;;;;;;5066373;28;19923;-74
2022/04/08 12:13:14;;;;;;;;;;;6.50;99.90;;;;;;5065906;28;19920;-73
2022/04/08 12:15:41;;;;;;;;;;;6.50;99.90;;;;;;5065276;28;19931;-75
2022/04/08 12:18:08;;;;;;;;;;;6.60;99.90;;;;;;5066850;28;20101;-72
2022/04/08 12:20:37;;;;;;;;;;;6.60;99.90;;;;;;5066357;28;20115;-73
2022/04/08 12:23:05;;;;;;;;;;;6.60;99.90;;;;;;5066813;28;19928;-72
2022/04/08 12:25:31;;;;;;;;;;;6.60;99.90;;;;;;5066181;28;19921;-72
2022/04/08 12:27:59;;;;;;;;;;;6.60;99.90;;;;;;5066478;28;19943;-72
2022/04/08 12:30:27;;;;;;;;;;;6.60;99.90;;;;;;5064341;28;19920;-72
2022/04/08 12:32:53;;;;;;;;;;;6.50;99.90;;;;;;5066201;28;19920;-73
2022/04/08 12:35:20;;;;;;;;;;;6.40;99.90;;;;;;5065584;28;19979;-72
2022/04/08 12:37:48;;;;;;;;;;;6.40;99.90;;;;;;5066166;28;19921;-72
2022/04/08 12:40:15;;;;;;;;;;;6.30;99.90;;;;;;5064431;28;19927;-73
2022/04/08 12:42:41;;;;;;;;;;;6.30;99.90;;;;;;5065940;28;19927;-73
2022/04/08 12:45:08;;;;;;;;;;;6.20;99.90;;;;;;5065394;28;19935;-72
2022/04/08 12:47:36;;;;;;;;;;;6.10;99.90;;;;;;5065685;28;19928;-71
2022/04/08 12:50:03;;;;;;;;;;;6.10;99.90;;;;;;5066485;28;19921;-72
2022/04/08 12:52:29;;;;;;;;;;;6.10;99.90;;;;;;5066522;28;19927;-72
2022/04/08 12:54:57;;;;;;;;;;;6.10;99.90;;;;;;5062560;28;19921;-72
2022/04/08 12:57:24;;;;;;;;;;;6.10;99.90;;;;;;5065252;28;20251;-71
2022/04/08 12:59:50;;;;;;;;;;;6.10;99.90;;;;;;5066239;28;19920;-71
2022/04/08 13:02:17;;;;;;;;;;;6.10;99.90;;;;;;5061174;28;19921;-72
2022/04/08 13:04:44;;;;;;;;;;;6.10;99.90;;;;;;5043136;28;19921;-71
2022/04/08 13:07:10;;;;;;;;;;;6.10;99.90;;;;;;5044961;28;19943;-72
2022/04/08 13:09:37;;;;;;;;;;;6.20;99.90;;;;;;5045545;28;19927;-71
2022/04/08 13:12:05;;;;;;;;;;;6.10;99.90;;;;;;5058292;28;19921;-72
2022/04/08 13:14:32;;;;;;;;;;;6.10;99.90;;;;;;5065433;28;19959;-71
2022/04/08 13:16:58;;;;;;;;;;;6.10;99.90;;;;;;5064928;28;20116;-74
2022/04/08 13:19:25;;;;;;;;;;;6.20;99.90;;;;;;5065581;28;19927;-72
2022/04/08 13:21:52;;;;;;;;;;;6.20;99.90;;;;;;5065980;28;20109;-76
2022/04/08 13:24:19;;;;;;;;;;;6.20;99.90;;;;;;5065954;28;19921;-70
2022/04/08 13:26:46;;;;;;;;;;;6.20;99.90;;;;;;5065042;28;19992;-72
2022/04/08 13:29:14;;;;;;;;;;;6.20;99.90;;;;;;5065701;28;19927;-71
2022/04/08 13:31:40;;;;;;;;;;;6.20;99.90;;;;;;5065805;28;20116;-71
2022/04/08 13:34:07;;;;;;;;;;;6.30;99.90;;;;;;5065773;28;20089;-72
2022/04/08 13:36:34;;;;;;;;;;;6.20;99.90;;;;;;5064905;28;20139;-71
2022/04/08 13:39:00;;;;;;;;;;;6.20;99.90;;;;;;5065174;28;19936;-71
2022/04/08 13:41:27;;;;;;;;;;;6.20;99.90;;;;;;5060366;28;19927;-70
2022/04/08 13:43:54;;;;;;;;;;;6.20;99.90;;;;;;5056498;28;19928;-71
2022/04/08 13:46:22;;;;;;;;;;;6.10;99.90;;;;;;5044787;28;20003;-71
2022/04/08 13:48:48;;;;;;;;;;;6.20;99.90;;;;;;5053078;28;19921;-72
2022/04/08 13:51:15;;;;;;;;;;;6.10;99.90;;;;;;5064747;28;19927;-73
2022/04/08 13:53:41;;;;;;;;;;;6.10;99.90;;;;;;5065154;28;19925;-71
2022/04/08 13:56:17;;;;;;;;;;;6.20;99.90;;;;;;5064093;28;19924;-74
2022/04/08 13:58:44;;;;;;;;;;;6.20;99.90;;;;;;5045320;28;19976;-71
2022/04/08 14:01:10;;;;;;;;;;;6.20;99.90;;;;;;5045171;28;19921;-71
2022/04/08 14:03:38;;;;;;;;;;;6.20;99.90;;;;;;5044756;28;19927;-72
2022/04/08 14:06:05;;;;;;;;;;;6.30;99.90;;;;;;5043844;28;20212;-71
2022/04/08 14:08:31;;;;;;;;;;;6.30;99.90;;;;;;5044530;28;20209;-70
2022/04/08 14:11:00;;;;;;;;;;;6.30;99.90;;;;;;5044895;28;20124;-71
2022/04/08 14:13:27;;;;;;;;;;;6.30;99.90;;;;;;5044358;28;20152;-71
2022/04/08 14:15:54;;;;;;;;;;;6.30;99.90;;;;;;5044189;28;19936;-71
2022/04/08 14:18:20;;;;;;;;;;;6.30;99.90;;;;;;5060322;28;19927;-70
2022/04/08 14:20:48;;;;;;;;;;;6.30;99.90;;;;;;5064428;28;19921;-71
2022/04/08 14:23:15;;;;;;;;;;;6.40;99.90;;;;;;5064461;28;20115;-71
2022/04/08 14:25:41;;;;;;;;;;;6.40;99.90;;;;;;5062983;28;19924;-72
2022/04/08 14:28:08;;;;;;;;;;;6.30;99.90;;;;;;5064278;28;19932;-72
2022/04/08 14:30:39;;;;;;;;;;;6.30;99.90;;;;;;5061031;28;19936;-70